FSB1001 SBRF-SBGR
Flight info
| Callsign | FSB1001 |
|---|---|
| Flight time | N/A |
| Altitude | 36000 |
| Route | UDOSA UZ21 VUNOX |
| Aircraft | B738/M-SDE2E3FGHIRWXY/LB1 |
Departure
| Time | 2026-04-30 14:46 |
|---|---|
| Airport | Recife/Guararapes - Gilberto Freyre International Airport (SBRF) |
Arrival
| Time | N/A |
|---|---|
| Airport | São Paulo/Guarulhos–Governor André Franco Montoro International Airport (SBGR) |
| Time | Latitude | Longitude | Altitude | Speed | Heading |
|---|---|---|---|---|---|
| 2026-04-30 14:30 | -8.13402 | -34.91830 | 38 ft | 0 kts | 75° |
| 2026-04-30 14:37 | -8.13402 | -34.91831 | 38 ft | 0 kts | 75° |
| 2026-04-30 14:38 | -8.13403 | -34.91833 | 38 ft | 1 kts | 75° |
| 2026-04-30 14:39 | -8.13405 | -34.91841 | 37 ft | 4 kts | 74° |
| 2026-04-30 14:39 | -8.13415 | -34.91872 | 36 ft | 3 kts | 62° |
| 2026-04-30 14:39 | -8.13425 | -34.91884 | 35 ft | 4 kts | 18° |
| 2026-04-30 14:40 | -8.13399 | -34.91895 | 37 ft | 3 kts | 339° |
| 2026-04-30 14:40 | -8.13376 | -34.91907 | 37 ft | 5 kts | 332° |
| 2026-04-30 14:40 | -8.13331 | -34.91930 | 37 ft | 10 kts | 332° |
| 2026-04-30 14:40 | -8.13255 | -34.91961 | 35 ft | 14 kts | 341° |
| 2026-04-30 14:41 | -8.13149 | -34.91996 | 36 ft | 18 kts | 342° |
| 2026-04-30 14:41 | -8.13022 | -34.92039 | 37 ft | 20 kts | 342° |
| 2026-04-30 14:41 | -8.12892 | -34.92081 | 37 ft | 19 kts | 342° |
| 2026-04-30 14:41 | -8.12766 | -34.92121 | 34 ft | 19 kts | 342° |
| 2026-04-30 14:42 | -8.12646 | -34.92161 | 36 ft | 18 kts | 342° |
| 2026-04-30 14:42 | -8.12529 | -34.92201 | 33 ft | 17 kts | 341° |
| 2026-04-30 14:42 | -8.12415 | -34.92238 | 35 ft | 17 kts | 342° |
| 2026-04-30 14:42 | -8.12306 | -34.92275 | 33 ft | 16 kts | 342° |
| 2026-04-30 14:43 | -8.12199 | -34.92310 | 34 ft | 17 kts | 342° |
| 2026-04-30 14:43 | -8.12071 | -34.92352 | 32 ft | 21 kts | 341° |
| 2026-04-30 14:43 | -8.11935 | -34.92397 | 30 ft | 20 kts | 342° |
| 2026-04-30 14:43 | -8.11804 | -34.92440 | 31 ft | 20 kts | 342° |
| 2026-04-30 14:44 | -8.11675 | -34.92482 | 31 ft | 19 kts | 340° |
| 2026-04-30 14:44 | -8.11569 | -34.92542 | 31 ft | 13 kts | 319° |
| 2026-04-30 14:44 | -8.11501 | -34.92603 | 31 ft | 13 kts | 319° |
| 2026-04-30 14:44 | -8.11453 | -34.92669 | 31 ft | 9 kts | 266° |
| 2026-04-30 14:45 | -8.11499 | -34.92692 | 31 ft | 8 kts | 169° |
| 2026-04-30 14:45 | -8.11596 | -34.92661 | 31 ft | 36 kts | 161° |
| 2026-04-30 14:45 | -8.12069 | -34.92504 | 31 ft | 105 kts | 161° |
| 2026-04-30 14:45 | -8.12954 | -34.92213 | 36 ft | 160 kts | 161° |
| 2026-04-30 14:46 | -8.14126 | -34.91848 | 420 ft | 181 kts | 162° |
| 2026-04-30 14:46 | -8.15315 | -34.91463 | 1253 ft | 181 kts | 162° |
| 2026-04-30 14:46 | -8.16485 | -34.91120 | 2299 ft | 170 kts | 171° |
| 2026-04-30 14:46 | -8.17668 | -34.91433 | 2776 ft | 200 kts | 214° |
| 2026-04-30 14:47 | -8.18526 | -34.92720 | 2715 ft | 246 kts | 248° |
| 2026-04-30 14:47 | -8.19110 | -34.94466 | 2749 ft | 278 kts | 249° |
| 2026-04-30 14:47 | -8.19744 | -34.96370 | 3218 ft | 288 kts | 249° |
| 2026-04-30 14:47 | -8.20378 | -34.98239 | 4380 ft | 275 kts | 249° |
| 2026-04-30 14:48 | -8.21018 | -35.00076 | 5181 ft | 280 kts | 248° |
| 2026-04-30 14:48 | -8.21875 | -35.01844 | 5887 ft | 281 kts | 232° |
| 2026-04-30 14:48 | -8.23051 | -35.03420 | 6662 ft | 284 kts | 229° |
| 2026-04-30 14:48 | -8.24283 | -35.05009 | 7324 ft | 290 kts | 230° |
| 2026-04-30 14:49 | -8.25539 | -35.06631 | 7955 ft | 297 kts | 230° |
| 2026-04-30 14:49 | -8.26817 | -35.08297 | 8635 ft | 302 kts | 231° |
| 2026-04-30 14:49 | -8.28107 | -35.09995 | 9347 ft | 306 kts | 232° |
| 2026-04-30 14:49 | -8.29403 | -35.11714 | 10025 ft | 311 kts | 232° |
| 2026-04-30 14:50 | -8.32163 | -35.15400 | 10504 ft | 350 kts | 232° |
| 2026-04-30 14:50 | -8.33671 | -35.17423 | 10645 ft | 370 kts | 232° |
| 2026-04-30 14:51 | -8.36841 | -35.21690 | 11446 ft | 387 kts | 232° |
| 2026-04-30 14:51 | -8.38459 | -35.23872 | 12048 ft | 389 kts | 232° |
| 2026-04-30 14:51 | -8.41732 | -35.28288 | 13121 ft | 396 kts | 232° |
| 2026-04-30 14:52 | -8.43389 | -35.30525 | 13648 ft | 399 kts | 232° |
| 2026-04-30 14:52 | -8.46744 | -35.35052 | 14526 ft | 406 kts | 232° |
| 2026-04-30 14:52 | -8.48448 | -35.37352 | 14937 ft | 410 kts | 232° |
| 2026-04-30 14:53 | -8.51874 | -35.41979 | 15775 ft | 417 kts | 232° |
| 2026-04-30 14:53 | -8.53618 | -35.44334 | 16187 ft | 421 kts | 232° |
| 2026-04-30 14:54 | -8.57146 | -35.49098 | 16988 ft | 428 kts | 231° |
| 2026-04-30 14:54 | -8.60764 | -35.53987 | 17772 ft | 436 kts | 231° |
| 2026-04-30 14:55 | -8.64393 | -35.58894 | 18510 ft | 442 kts | 231° |
| 2026-04-30 14:55 | -8.66236 | -35.61386 | 18925 ft | 442 kts | 231° |
| 2026-04-30 14:55 | -8.69933 | -35.66389 | 19661 ft | 446 kts | 231° |
| 2026-04-30 14:56 | -8.73660 | -35.71431 | 20353 ft | 450 kts | 231° |
| 2026-04-30 14:56 | -8.77420 | -35.76521 | 21052 ft | 454 kts | 231° |
| 2026-04-30 14:57 | -8.79313 | -35.79083 | 21377 ft | 456 kts | 231° |
| 2026-04-30 14:57 | -8.83119 | -35.84239 | 22039 ft | 459 kts | 231° |
| 2026-04-30 14:58 | -8.86928 | -35.89400 | 22655 ft | 462 kts | 232° |
| 2026-04-30 14:58 | -8.88861 | -35.92019 | 22958 ft | 464 kts | 232° |
| 2026-04-30 14:58 | -8.92732 | -35.97268 | 23564 ft | 467 kts | 231° |
| 2026-04-30 14:59 | -8.96619 | -36.02540 | 24043 ft | 470 kts | 231° |
| 2026-04-30 15:00 | -9.02521 | -36.10548 | 24798 ft | 473 kts | 231° |
| 2026-04-30 15:00 | -9.07161 | -36.15221 | 25220 ft | 472 kts | 213° |
| 2026-04-30 15:01 | -9.12559 | -36.18972 | 25719 ft | 473 kts | 212° |
| 2026-04-30 15:01 | -9.14362 | -36.20213 | 25861 ft | 474 kts | 212° |
| 2026-04-30 15:01 | -9.20729 | -36.24645 | 26352 ft | 477 kts | 213° |
| 2026-04-30 15:02 | -9.23477 | -36.26580 | 26572 ft | 479 kts | 213° |
| 2026-04-30 15:02 | -9.26174 | -36.28487 | 26780 ft | 480 kts | 213° |
| 2026-04-30 15:03 | -9.34421 | -36.34329 | 27387 ft | 483 kts | 213° |
| 2026-04-30 15:03 | -9.39964 | -36.38255 | 27749 ft | 486 kts | 213° |
| 2026-04-30 15:04 | -9.45492 | -36.42171 | 28098 ft | 488 kts | 213° |
| 2026-04-30 15:04 | -9.53865 | -36.48104 | 28625 ft | 491 kts | 213° |
| 2026-04-30 15:05 | -9.62241 | -36.54044 | 29464 ft | 487 kts | 213° |
| 2026-04-30 15:06 | -9.67757 | -36.57957 | 29969 ft | 486 kts | 213° |
| 2026-04-30 15:06 | -9.73310 | -36.61916 | 30439 ft | 484 kts | 213° |
| 2026-04-30 15:07 | -9.78800 | -36.65845 | 30911 ft | 483 kts | 213° |
| 2026-04-30 15:07 | -9.84253 | -36.69745 | 31406 ft | 481 kts | 213° |
| 2026-04-30 15:08 | -9.88798 | -36.72996 | 31836 ft | 479 kts | 213° |
| 2026-04-30 15:08 | -9.96976 | -36.78844 | 32563 ft | 478 kts | 213° |
| 2026-04-30 15:09 | -10.02408 | -36.82726 | 33088 ft | 476 kts | 214° |
| 2026-04-30 15:09 | -10.07821 | -36.86601 | 33585 ft | 475 kts | 214° |
| 2026-04-30 15:10 | -10.13171 | -36.90431 | 34080 ft | 473 kts | 214° |
| 2026-04-30 15:11 | -10.23856 | -36.98081 | 34981 ft | 468 kts | 213° |
| 2026-04-30 15:11 | -10.29167 | -37.01888 | 35390 ft | 466 kts | 213° |
| 2026-04-30 15:12 | -10.37086 | -37.07563 | 35986 ft | 464 kts | 213° |
| 2026-04-30 15:13 | -10.42379 | -37.11361 | 35989 ft | 466 kts | 213° |
| 2026-04-30 15:14 | -10.60703 | -37.24520 | 35997 ft | 458 kts | 213° |
| 2026-04-30 15:17 | -10.84160 | -37.41394 | 36001 ft | 461 kts | 213° |
| 2026-04-30 15:19 | -11.05140 | -37.56512 | 35994 ft | 463 kts | 213° |